createdAt,value
2023-05-14T00:04:43.374Z,71.18
2023-05-14T00:09:44.684Z,71.80
2023-05-14T00:14:46.009Z,73.09
2023-05-14T00:19:47.276Z,75.03
2023-05-14T00:24:48.612Z,74.45
2023-05-14T00:29:49.947Z,75.79
2023-05-14T00:34:51.236Z,74.33
2023-05-14T00:39:52.571Z,75.19
2023-05-14T00:44:54.052Z,75.21
2023-05-14T00:49:55.513Z,75.96
2023-05-14T00:54:56.946Z,74.78
2023-05-14T00:59:58.284Z,76.05
2023-05-14T01:04:59.582Z,75.01
2023-05-14T01:10:01.600Z,75.41
2023-05-14T01:15:02.992Z,74.70
2023-05-14T01:20:04.451Z,73.84
2023-05-14T01:25:05.803Z,74.72
2023-05-14T01:30:08.257Z,73.53
2023-05-14T01:35:09.516Z,74.96
2023-05-14T01:40:10.765Z,75.69
2023-05-14T01:45:12.065Z,76.42
2023-05-14T01:50:13.421Z,76.34
2023-05-14T01:55:15.964Z,75.78
2023-05-14T02:00:17.280Z,74.75
2023-05-14T02:05:18.872Z,76.51
2023-05-14T02:10:20.215Z,75.65
2023-05-14T02:15:21.490Z,75.34
2023-05-14T02:20:22.936Z,76.25
2023-05-14T02:25:24.349Z,76.86
2023-05-14T02:30:25.762Z,77.48
2023-05-14T02:35:27.248Z,77.67
2023-05-14T02:40:28.597Z,77.72
2023-05-14T02:45:29.905Z,77.02
2023-05-14T02:50:31.135Z,75.78
2023-05-14T02:55:32.407Z,76.23
2023-05-14T03:00:33.726Z,78.67
2023-05-14T03:05:35.710Z,77.75
2023-05-14T03:10:37.158Z,77.53
2023-05-14T03:15:38.428Z,76.08
2023-05-14T03:20:39.668Z,75.66
2023-05-14T03:25:41.095Z,75.45
2023-05-14T03:30:42.375Z,77.50
2023-05-14T03:35:43.684Z,77.42
2023-05-14T03:40:45.371Z,78.48
2023-05-14T03:45:46.638Z,78.39
2023-05-14T03:50:47.922Z,78.02
2023-05-14T03:55:49.291Z,77.46
2023-05-14T04:00:50.738Z,77.71
2023-05-14T04:05:52.407Z,78.72
2023-05-14T04:10:53.706Z,78.27
2023-05-14T04:15:55.001Z,80.07
2023-05-14T04:20:56.275Z,79.22
2023-05-14T04:25:57.534Z,78.84
2023-05-14T04:30:58.768Z,79.94
2023-05-14T04:36:00.258Z,79.21
2023-05-14T04:41:02.174Z,79.74
2023-05-14T04:46:03.501Z,79.63
2023-05-14T04:51:06.949Z,78.81
2023-05-14T04:56:08.505Z,78.21
2023-05-14T05:01:10.012Z,77.35
2023-05-14T05:06:11.306Z,76.02
2023-05-14T05:11:12.543Z,77.59
2023-05-14T05:16:13.852Z,76.70
2023-05-14T05:21:15.233Z,76.87
2023-05-14T05:26:16.699Z,76.72
2023-05-14T05:31:19.679Z,76.54
2023-05-14T05:36:21.276Z,75.79
2023-05-14T05:41:22.556Z,76.22
2023-05-14T05:46:23.939Z,76.15
2023-05-14T05:51:25.283Z,75.72
2023-05-14T05:56:26.678Z,74.73
2023-05-14T06:01:27.986Z,74.23
2023-05-14T06:06:29.268Z,75.03
2023-05-14T06:11:30.542Z,72.74
2023-05-14T06:16:31.987Z,71.99
2023-05-14T06:21:33.406Z,71.35
2023-05-14T06:26:34.648Z,69.24
2023-05-14T06:31:35.937Z,70.69
2023-05-14T06:36:37.368Z,69.49
2023-05-14T06:41:38.659Z,68.71
2023-05-14T06:46:39.922Z,68.77
2023-05-14T06:51:41.950Z,68.82
2023-05-14T06:56:43.304Z,65.34
2023-05-14T07:01:44.856Z,65.57
2023-05-14T07:06:47.325Z,63.79
2023-05-14T07:11:48.579Z,65.29
2023-05-14T07:16:49.850Z,62.25
2023-05-14T07:21:51.085Z,60.33
2023-05-14T07:26:52.373Z,62.32
2023-05-14T07:31:53.737Z,64.86
2023-05-14T07:36:55.061Z,64.09
2023-05-14T07:41:56.432Z,62.99
2023-05-14T07:46:57.751Z,61.65
2023-05-14T07:51:59.055Z,56.48
2023-05-14T07:57:00.294Z,56.80
2023-05-14T08:02:01.632Z,59.01
2023-05-14T08:07:02.945Z,56.92
2023-05-14T08:12:04.246Z,55.28
2023-05-14T08:17:06.102Z,55.19
2023-05-14T08:22:07.418Z,56.34
2023-05-14T08:27:08.672Z,53.94
2023-05-14T08:32:19.786Z,55.16
2023-05-14T08:37:24.829Z,53.49
2023-05-14T08:42:26.094Z,55.61
2023-05-14T08:47:27.634Z,55.73
2023-05-14T08:52:29.123Z,49.07
2023-05-14T08:57:31.097Z,49.79
2023-05-14T09:02:32.383Z,51.83
2023-05-14T09:07:33.704Z,51.95
2023-05-14T09:12:35.058Z,49.93
2023-05-14T09:17:36.531Z,48.47
2023-05-14T09:22:37.858Z,49.76
2023-05-14T09:27:39.137Z,47.28
2023-05-14T09:32:40.518Z,48.33
2023-05-14T09:37:42.766Z,46.37
2023-05-14T09:42:44.088Z,44.82
2023-05-14T09:47:45.700Z,47.20
2023-05-14T09:52:47.232Z,50.26
2023-05-14T09:57:48.502Z,49.37
2023-05-14T10:02:49.825Z,44.82
2023-05-14T10:07:51.052Z,47.39
2023-05-14T10:12:52.468Z,46.20
2023-05-14T10:17:53.737Z,47.12
2023-05-14T10:22:55.085Z,48.37
2023-05-14T10:27:56.329Z,50.75
2023-05-14T10:32:57.586Z,50.40
2023-05-14T10:37:58.840Z,49.38
2023-05-14T10:43:00.041Z,51.61
2023-05-14T10:48:01.388Z,52.42
2023-05-14T10:53:02.687Z,51.72
2023-05-14T10:58:03.929Z,51.30
2023-05-14T11:03:05.691Z,52.72
2023-05-14T11:08:07.860Z,53.69
2023-05-14T11:13:09.282Z,52.38
2023-05-14T11:18:10.669Z,51.82
2023-05-14T11:23:11.979Z,51.44
2023-05-14T11:28:13.298Z,52.30
2023-05-14T11:33:14.645Z,52.41
2023-05-14T11:38:16.296Z,51.71
2023-05-14T11:43:17.513Z,49.12
2023-05-14T11:48:18.975Z,50.64
2023-05-14T11:53:20.355Z,49.58
2023-05-14T11:58:21.713Z,48.54
2023-05-14T12:03:26.300Z,52.38
2023-05-14T12:08:27.868Z,46.80
2023-05-14T12:13:29.085Z,47.48
2023-05-14T12:18:32.010Z,45.70
2023-05-14T12:23:33.369Z,47.75
2023-05-14T12:28:37.573Z,50.26
2023-05-14T12:33:39.391Z,47.57
2023-05-14T12:38:41.262Z,46.72
2023-05-14T12:43:42.556Z,45.44
2023-05-14T12:48:43.823Z,47.04
2023-05-14T12:53:45.109Z,44.99
2023-05-14T12:58:46.895Z,44.42
2023-05-14T13:03:48.209Z,43.92
2023-05-14T13:08:49.511Z,46.92
2023-05-14T13:13:50.753Z,45.02
2023-05-14T13:18:52.261Z,45.03
2023-05-14T13:23:53.543Z,46.28
2023-05-14T13:28:54.751Z,46.76
2023-05-14T13:33:57.936Z,45.68
2023-05-14T13:38:59.201Z,47.57
2023-05-14T13:44:00.457Z,48.63
2023-05-14T13:49:01.786Z,50.98
2023-05-14T13:54:03.490Z,59.08
2023-05-14T13:59:04.892Z,67.99
2023-05-14T14:04:06.172Z,68.89
2023-05-14T14:09:07.494Z,71.08
2023-05-14T14:14:10.415Z,70.58
2023-05-14T14:19:11.744Z,71.11
2023-05-14T14:24:13.114Z,73.54
2023-05-14T14:29:14.905Z,75.47
2023-05-14T14:34:16.677Z,75.96
2023-05-14T14:39:18.061Z,75.65
2023-05-14T14:44:19.366Z,75.06
2023-05-14T14:49:20.687Z,75.57
2023-05-14T14:54:21.977Z,77.18
2023-05-14T14:59:23.275Z,75.42
2023-05-14T15:04:24.633Z,73.70
2023-05-14T15:09:25.932Z,72.41
2023-05-14T15:14:27.189Z,76.62
2023-05-14T15:19:28.423Z,73.65
2023-05-14T15:24:29.616Z,73.47
2023-05-14T15:29:30.862Z,72.87
2023-05-14T15:34:32.083Z,74.37
2023-05-14T15:39:33.390Z,72.73
2023-05-14T15:44:36.013Z,73.24
2023-05-14T15:49:39.429Z,71.91
2023-05-14T15:54:40.647Z,71.19
2023-05-14T15:59:42.164Z,73.23
2023-05-14T16:04:45.228Z,73.67
2023-05-14T16:09:46.476Z,71.76
2023-05-14T16:14:47.869Z,71.32
2023-05-14T16:19:49.160Z,71.71
2023-05-14T16:24:50.611Z,69.94
2023-05-14T16:29:51.880Z,69.14
2023-05-14T16:34:53.209Z,68.49
2023-05-14T16:39:54.849Z,69.48
2023-05-14T16:44:57.211Z,66.96
2023-05-14T16:49:58.636Z,69.42
2023-05-14T16:54:59.931Z,66.27
2023-05-14T17:00:01.413Z,67.98
2023-05-14T17:05:03.967Z,66.70
2023-05-14T17:10:05.322Z,67.52
2023-05-14T17:15:06.977Z,70.44
2023-05-14T17:20:08.380Z,67.68
2023-05-14T17:25:09.708Z,62.34
2023-05-14T17:30:10.970Z,62.51
2023-05-14T17:35:12.315Z,60.38
2023-05-14T17:40:13.648Z,64.67
2023-05-14T17:45:15.605Z,67.51
2023-05-14T17:50:17.220Z,71.59
2023-05-14T17:55:19.212Z,73.35
2023-05-14T18:00:20.673Z,71.05
2023-05-14T18:05:22.174Z,68.98
2023-05-14T18:10:23.585Z,68.64
2023-05-14T18:15:25.902Z,67.52
2023-05-14T18:20:27.280Z,68.90
2023-05-14T18:25:28.537Z,70.29
2023-05-14T18:30:29.802Z,70.02
2023-05-14T18:35:31.056Z,69.26
2023-05-14T18:40:32.310Z,69.41
2023-05-14T18:45:33.689Z,69.72
2023-05-14T18:50:36.097Z,69.98
2023-05-14T18:55:38.263Z,69.93
2023-05-14T19:00:39.473Z,70.93
2023-05-14T19:05:40.690Z,73.75
2023-05-14T19:10:41.950Z,76.22
2023-05-14T19:15:43.255Z,75.14
2023-05-14T19:20:46.541Z,74.75
2023-05-14T19:25:47.814Z,73.89
2023-05-14T19:30:51.117Z,74.14
2023-05-14T19:35:52.940Z,74.46
2023-05-14T19:40:56.883Z,76.09
2023-05-14T19:46:00.592Z,76.65
2023-05-14T19:51:03.126Z,77.37
2023-05-14T19:56:04.375Z,77.59
2023-05-14T20:01:05.690Z,78.52
2023-05-14T20:06:07.868Z,78.35
2023-05-14T20:11:09.141Z,79.43
2023-05-14T20:16:10.558Z,79.09
2023-05-14T20:21:11.845Z,76.96
2023-05-14T20:26:13.157Z,79.03
2023-05-14T20:31:14.464Z,75.84
2023-05-14T20:36:16.043Z,75.96
2023-05-14T20:41:17.255Z,76.27
2023-05-14T20:46:18.581Z,75.34
2023-05-14T20:51:21.493Z,75.69
2023-05-14T20:56:22.729Z,75.45
2023-05-14T21:01:23.962Z,75.19
2023-05-14T21:06:25.231Z,78.15
2023-05-14T21:11:26.487Z,80.71
2023-05-14T21:16:27.809Z,81.49
2023-05-14T21:21:29.100Z,82.67
2023-05-14T21:26:30.438Z,80.33
2023-05-14T21:31:31.731Z,78.13
2023-05-14T21:36:33.066Z,78.09
2023-05-14T21:41:34.363Z,78.06
2023-05-14T21:46:35.957Z,80.08
2023-05-14T21:51:37.206Z,81.33
2023-05-14T21:56:38.427Z,82.09
2023-05-14T22:01:56.148Z,82.40
2023-05-14T22:07:00.881Z,81.23
2023-05-14T22:12:02.102Z,81.72
2023-05-14T22:17:03.349Z,82.03
2023-05-14T22:22:04.625Z,79.44
2023-05-14T22:27:06.234Z,77.87
2023-05-14T22:32:08.535Z,80.28
2023-05-14T22:37:09.792Z,79.51
2023-05-14T22:42:11.110Z,78.81
2023-05-14T22:47:12.363Z,78.72
2023-05-14T22:52:13.571Z,78.58
2023-05-14T22:57:14.795Z,79.80
2023-05-14T23:02:16.131Z,80.03
2023-05-14T23:07:17.460Z,77.95
2023-05-14T23:12:18.808Z,77.11
2023-05-14T23:17:20.057Z,76.53
2023-05-14T23:22:21.316Z,76.57
2023-05-14T23:27:22.824Z,78.64
2023-05-14T23:32:24.092Z,79.16
2023-05-14T23:37:25.548Z,79.80
2023-05-14T23:42:26.770Z,81.46
2023-05-14T23:47:27.990Z,81.97
2023-05-14T23:52:29.191Z,81.74
2023-05-14T23:57:30.518Z,82.04
